Randolph, Alabama
Current Conditions -  °F | °C
As of 7:53 PM on Monday 24 Nov 2014 (Local Time) from KEET Reporting Station
Clear Clear  
Wind Chill: 53°   Ceiling: Unl
Heat Index: 53°   Visibility: 10mi
Dew Point: 42°   Wind: 6mph
Humidity: 66%   Direction: 320°NW
Pressure: 30"   Gusts: NA
Location:  32.9°N, 86.91°W
Report Text: KEET 250153Z AUTO 32005KT 10SM CLR 12/06 A3000 RMK AO2 SLP154 T01170056
Loading
Personal Weather Stations






























Interactive Weather Map New forecast layout! Learn more

10-Day Weather Forecast

Advertisements
Track Severe Weather on mobile